Map

Track Data

SID SEASON NUMBER BASIN SUBBASIN NAME ISO_TIME NATURE LAT LON WMO_WIND WMO_PRES WMO_AGENCY TRACK_TYPE DIST2LAND LANDFALL IFLAG USA_AGENCY USA_ATCF_ID USA_LAT USA_LON USA_RECORD USA_STATUS USA_WIND USA_PRES USA_SSHS USA_R34_NE USA_R34_SE USA_R34_SW USA_R34_NW USA_R50_NE USA_R50_SE USA_R50_SW USA_R50_NW USA_R64_NE USA_R64_SE USA_R64_SW USA_R64_NW USA_POCI USA_ROCI USA_RMW USA_EYE TOKYO_LAT TOKYO_LON TOKYO_GRADE TOKYO_WIND TOKYO_PRES TOKYO_R50_DIR TOKYO_R50_LONG TOKYO_R50_SHORT TOKYO_R30_DIR TOKYO_R30_LONG TOKYO_R30_SHORT TOKYO_LAND CMA_LAT CMA_LON CMA_CAT CMA_WIND CMA_PRES HKO_LAT HKO_LON HKO_CAT HKO_WIND HKO_PRES NEWDELHI_LAT NEWDELHI_LON NEWDELHI_GRADE NEWDELHI_WIND NEWDELHI_PRES NEWDELHI_CI NEWDELHI_DP NEWDELHI_POCI REUNION_LAT REUNION_LON REUNION_TYPE REUNION_WIND REUNION_PRES REUNION_TNUM REUNION_CI REUNION_RMW REUNION_R34_NE REUNION_R34_SE REUNION_R34_SW REUNION_R34_NW REUNION_R50_NE REUNION_R50_SE REUNION_R50_SW REUNION_R50_NW REUNION_R64_NE REUNION_R64_SE REUNION_R64_SW REUNION_R64_NW BOM_LAT BOM_LON BOM_TYPE BOM_WIND BOM_PRES BOM_TNUM BOM_CI BOM_RMW BOM_R34_NE BOM_R34_SE BOM_R34_SW BOM_R34_NW BOM_R50_NE BOM_R50_SE BOM_R50_SW BOM_R50_NW BOM_R64_NE BOM_R64_SE BOM_R64_SW BOM_R64_NW BOM_ROCI BOM_POCI BOM_EYE BOM_POS_METHOD BOM_PRES_METHOD NADI_LAT NADI_LON NADI_CAT NADI_WIND NADI_PRES WELLINGTON_LAT WELLINGTON_LON WELLINGTON_WIND WELLINGTON_PRES DS824_LAT DS824_LON DS824_STAGE DS824_WIND DS824_PRES TD9636_LAT TD9636_LON TD9636_STAGE TD9636_WIND TD9636_PRES TD9635_LAT TD9635_LON TD9635_WIND TD9635_PRES TD9635_ROCI NEUMANN_LAT NEUMANN_LON NEUMANN_CLASS NEUMANN_WIND NEUMANN_PRES MLC_LAT MLC_LON MLC_CLASS MLC_WIND MLC_PRES USA_GUST BOM_GUST BOM_GUST_PER REUNION_GUST REUNION_GUST_PER USA_SEAHGT USA_SEARAD_NE USA_SEARAD_SE USA_SEARAD_SW USA_SEARAD_NW STORM_SPEED STORM_DIR
1885269N24304 1885 46 NA NA NOT_NAMED 1885-09-26 00:00:00 TS 24.2000 -55.7000 50 hurdat_atl main 1212 1206 O_____________ hurdat_atl AL071885 24.2000 -55.7000 TS 50 0 13 328
1885269N24304 1885 46 NA NA NOT_NAMED 1885-09-26 03:00:00 TS 24.7303 -56.0640 main 1208 1208 P_____________ AL071885 24.7303 -56.0640 TS 50 0 12 328
1885269N24304 1885 46 NA NA NOT_NAMED 1885-09-26 06:00:00 TS 25.2000 -56.4000 50 hurdat_atl main 1215 1212 O_____________ hurdat_atl AL071885 25.2000 -56.4000 TS 50 0 10 326
1885269N24304 1885 46 NA NA NOT_NAMED 1885-09-26 09:00:00 TS 25.5848 -56.6933 main 1219 1218 P_____________ AL071885 25.5848 -56.6933 TS 50 0 10 326
1885269N24304 1885 46 NA NA NOT_NAMED 1885-09-26 12:00:00 TS 26.0000 -57.0000 50 hurdat_atl main 1226 1226 O_____________ hurdat_atl AL071885 26.0000 -57.0000 TS 50 0 12 326
1885269N24304 1885 46 NA NA NOT_NAMED 1885-09-26 15:00:00 TS 26.5477 -57.4073 main 1235 1235 P_____________ AL071885 26.5477 -57.4073 TS 50 0 14 329
1885269N24304 1885 46 NA NA NOT_NAMED 1885-09-26 18:00:00 TS 27.2000 -57.8000 50 hurdat_atl main 1266 1266 O_____________ hurdat_atl AL071885 27.2000 -57.8000 TS 50 0 15 337
1885269N24304 1885 46 NA NA NOT_NAMED 1885-09-26 21:00:00 TS 27.9273 -58.0731 main 1308 1308 P_____________ AL071885 27.9273 -58.0731 TS 50 0 16 344
1885269N24304 1885 46 NA NA NOT_NAMED 1885-09-27 00:00:00 TS 28.7000 -58.3000 50 hurdat_atl main 1369 1369 O_____________ hurdat_atl AL071885 28.7000 -58.3000 TS 50 0 16 344
1885269N24304 1885 46 NA NA NOT_NAMED 1885-09-27 03:00:00 TS 29.4800 -58.5722 main 1428 1428 P_____________ AL071885 29.4800 -58.5722 TS 50 0 16 344
1885269N24304 1885 46 NA NA NOT_NAMED 1885-09-27 06:00:00 TS 30.2000 -58.8000 50 hurdat_atl main 1486 1486 O_____________ hurdat_atl AL071885 30.2000 -58.8000 TS 50 0 13 347
1885269N24304 1885 46 NA NA NOT_NAMED 1885-09-27 09:00:00 TS 30.7874 -58.9158 main 1522 1466 P_____________ AL071885 30.7874 -58.9158 TS 50 0 11 351
1885269N24304 1885 46 NA NA NOT_NAMED 1885-09-27 12:00:00 TS 31.3000 -59.0000 50 hurdat_atl main 1466 1411 O_____________ hurdat_atl AL071885 31.3000 -59.0000 TS 50 0 10 349
1885269N24304 1885 46 NA NA NOT_NAMED 1885-09-27 15:00:00 TS 31.8150 -59.1425 main 1411 1352 P_____________ AL071885 31.8150 -59.1425 TS 50 0 10 346
1885269N24304 1885 46 NA NA NOT_NAMED 1885-09-27 18:00:00 TS 32.3000 -59.3000 50 hurdat_atl main 1352 1307 O_____________ hurdat_atl AL071885 32.3000 -59.3000 TS 50 0 10 344
1885269N24304 1885 46 NA NA NOT_NAMED 1885-09-27 21:00:00 TS 32.7650 -59.4575 main 1293 1248 P_____________ AL071885 32.7650 -59.4575 TS 55 0 9 344
1885269N24304 1885 46 NA NA NOT_NAMED 1885-09-28 00:00:00 TS 33.2000 -59.6000 60 hurdat_atl main 1248 1203 O_____________ hurdat_atl AL071885 33.2000 -59.6000 TS 60 0 9 346
1885269N24304 1885 46 NA NA NOT_NAMED 1885-09-28 03:00:00 TS 33.5925 -59.7078 main 1203 1158 P_____________ AL071885 33.5925 -59.7078 TS 60 0 8 348
1885269N24304 1885 46 NA NA NOT_NAMED 1885-09-28 06:00:00 TS 34.0000 -59.8000 60 hurdat_atl main 1158 1104 O_____________ hurdat_atl AL071885 34.0000 -59.8000 TS 60 0 9 350
1885269N24304 1885 46 NA NA NOT_NAMED 1885-09-28 09:00:00 TS 34.4850 -59.8927 main 1104 1049 P_____________ AL071885 34.4850 -59.8927 TS 60 0 10 351
1885269N24304 1885 46 NA NA NOT_NAMED 1885-09-28 12:00:00 TS 35.0000 -60.0000 60 hurdat_atl main 1049 994 O_____________ hurdat_atl AL071885 35.0000 -60.0000 TS 60 0 10 349
1885269N24304 1885 46 NA NA NOT_NAMED 1885-09-28 15:00:00 TS 35.4850 -60.1353 main 994 936 P_____________ AL071885 35.4850 -60.1353 TS 60 0 10 346
1885269N24304 1885 46 NA NA NOT_NAMED 1885-09-28 18:00:00 TS 36.0000 -60.3000 60 hurdat_atl main 936 878 O_____________ hurdat_atl AL071885 36.0000 -60.3000 TS 60 0 11 345
1885269N24304 1885 46 NA NA NOT_NAMED 1885-09-28 21:00:00 TS 36.5776 -60.5072 main 868 801 P_____________ AL071885 36.5776 -60.5072 TS 65 1 12 345
1885269N24304 1885 46 NA NA NOT_NAMED 1885-09-29 00:00:00 TS 37.2000 -60.7000 70 hurdat_atl main 801 738 O_____________ hurdat_atl AL071885 37.2000 -60.7000 HU 70 1 13 349
1885269N24304 1885 46 NA NA NOT_NAMED 1885-09-29 03:00:00 TS 37.8499 -60.8228 main 738 666 P_____________ AL071885 37.8499 -60.8228 HU 70 1 13 353
1885269N24304 1885 46 NA NA NOT_NAMED 1885-09-29 06:00:00 TS 38.5000 -60.9000 70 hurdat_atl main 666 606 O_____________ hurdat_atl AL071885 38.5000 -60.9000 HU 70 1 12 354
1885269N24304 1885 46 NA NA NOT_NAMED 1885-09-29 09:00:00 TS 39.0850 -60.9869 main 606 552 P_____________ AL071885 39.0850 -60.9869 HU 75 1 12 356
1885269N24304 1885 46 NA NA NOT_NAMED 1885-09-29 12:00:00 TS 39.7000 -61.0000 80 hurdat_atl main 552 495 O_____________ hurdat_atl AL071885 39.7000 -61.0000 HU 80 1 13 4
1885269N24304 1885 46 NA NA NOT_NAMED 1885-09-29 15:00:00 TS 40.4176 -60.8890 main 495 424 P_____________ AL071885 40.4176 -60.8890 HU 80 1 15 9
1885269N24304 1885 46 NA NA NOT_NAMED 1885-09-29 18:00:00 TS 41.2000 -60.7000 80 hurdat_atl main 424 O_____________ hurdat_atl AL071885 41.2000 -60.7000 HU 80 1 16 10

About IBTrACS Database

This database is a web-friendly format of International Best Track Archive for Climate Stewardship (IBTrACS), a global best track data archive curated by NOAA dating back to 1842.

Updated: 2021-10-21